sensor_id;sensor_type;location;lat;lon;timestamp;pressure;altitude;pressure_sealevel;temperature;humidity
43621;BME280;29213;50.770;7.298;2023-04-08T00:00:24;101395.06;;;7.90;64.42
43621;BME280;29213;50.770;7.298;2023-04-08T00:02:50;101356.84;;;7.60;64.34
43621;BME280;29213;50.770;7.298;2023-04-08T00:05:15;101300.78;;;7.32;64.62
43621;BME280;29213;50.770;7.298;2023-04-08T00:07:41;101319.28;;;7.44;64.49
43621;BME280;29213;50.770;7.298;2023-04-08T00:10:07;101403.47;;;7.96;64.53
43621;BME280;29213;50.770;7.298;2023-04-08T00:12:32;101142.44;;;6.25;64.65
43621;BME280;29213;50.770;7.298;2023-04-08T00:14:58;101348.91;;;7.49;64.60
43621;BME280;29213;50.770;7.298;2023-04-08T00:17:23;101370.81;;;7.62;64.96
43621;BME280;29213;50.770;7.298;2023-04-08T00:19:48;101404.03;;;7.78;64.56
43621;BME280;29213;50.770;7.298;2023-04-08T00:22:14;101417.47;;;7.86;64.77
43621;BME280;29213;50.770;7.298;2023-04-08T00:24:39;101360.50;;;7.48;64.77
43621;BME280;29213;50.770;7.298;2023-04-08T00:27:05;101339.28;;;7.36;64.64
43621;BME280;29213;50.770;7.298;2023-04-08T00:29:30;101218.19;;;6.60;64.63
43621;BME280;29213;50.770;7.298;2023-04-08T00:31:56;101231.31;;;6.50;64.59
43621;BME280;29213;50.770;7.298;2023-04-08T00:34:22;101436.69;;;7.79;64.55
43621;BME280;29213;50.770;7.298;2023-04-08T00:36:47;101233.25;;;6.71;64.63
43621;BME280;29213;50.770;7.298;2023-04-08T00:39:13;101441.47;;;7.96;64.74
43621;BME280;29213;50.770;7.298;2023-04-08T00:41:39;101407.41;;;7.69;64.80
43621;BME280;29213;50.770;7.298;2023-04-08T00:44:04;101422.81;;;7.75;64.80
43621;BME280;29213;50.770;7.298;2023-04-08T00:46:34;101402.13;;;7.69;64.86
43621;BME280;29213;50.770;7.298;2023-04-08T00:49:00;101439.66;;;7.97;64.82
43621;BME280;29213;50.770;7.298;2023-04-08T00:51:28;101358.31;;;7.42;64.47
43621;BME280;29213;50.770;7.298;2023-04-08T00:53:54;101401.88;;;7.72;64.85
43621;BME280;29213;50.770;7.298;2023-04-08T00:56:20;101244.78;;;6.81;64.67
43621;BME280;29213;50.770;7.298;2023-04-08T00:58:46;101370.44;;;7.56;65.03
43621;BME280;29213;50.770;7.298;2023-04-08T01:01:32;101435.19;;;7.97;64.79
43621;BME280;29213;50.770;7.298;2023-04-08T01:06:49;101445.91;;;7.96;65.10
43621;BME280;29213;50.770;7.298;2023-04-08T01:09:18;101434.22;;;7.98;64.84
43621;BME280;29213;50.770;7.298;2023-04-08T01:11:48;101414.25;;;7.83;64.71
43621;BME280;29213;50.770;7.298;2023-04-08T01:14:22;101407.38;;;7.80;64.83
43621;BME280;29213;50.770;7.298;2023-04-08T01:16:48;101422.47;;;7.80;64.60
43621;BME280;29213;50.770;7.298;2023-04-08T01:19:28;101223.97;;;6.65;64.34
43621;BME280;29213;50.770;7.298;2023-04-08T01:22:01;101336.91;;;7.33;64.47
43621;BME280;29213;50.770;7.298;2023-04-08T01:24:30;101405.59;;;7.81;64.44
43621;BME280;29213;50.770;7.298;2023-04-08T01:26:57;101443.38;;;8.06;64.35
43621;BME280;29213;50.770;7.298;2023-04-08T01:29:25;101432.66;;;7.96;64.28
43621;BME280;29213;50.770;7.298;2023-04-08T01:31:52;101055.69;;;5.61;64.08
43621;BME280;29213;50.770;7.298;2023-04-08T01:34:18;101399.22;;;7.72;64.33
43621;BME280;29213;50.770;7.298;2023-04-08T01:36:45;101407.28;;;7.70;64.43
43621;BME280;29213;50.770;7.298;2023-04-08T01:39:12;101386.81;;;7.61;64.38
43621;BME280;29213;50.770;7.298;2023-04-08T01:41:38;101366.53;;;7.39;64.60
43621;BME280;29213;50.770;7.298;2023-04-08T01:44:05;101070.47;;;5.53;64.56
43621;BME280;29213;50.770;7.298;2023-04-08T01:46:31;101420.94;;;7.66;64.63
43621;BME280;29213;50.770;7.298;2023-04-08T01:48:57;101402.53;;;7.53;64.86
43621;BME280;29213;50.770;7.298;2023-04-08T01:51:23;101371.09;;;7.36;64.64
43621;BME280;29213;50.770;7.298;2023-04-08T01:53:50;101071.88;;;5.57;64.58
43621;BME280;29213;50.770;7.298;2023-04-08T01:56:16;101416.56;;;7.76;64.63
43621;BME280;29213;50.770;7.298;2023-04-08T01:58:49;101417.41;;;7.76;64.53
43621;BME280;29213;50.770;7.298;2023-04-08T02:01:19;101179.25;;;6.28;64.58
43621;BME280;29213;50.770;7.298;2023-04-08T02:03:46;101345.34;;;7.27;64.77
43621;BME280;29213;50.770;7.298;2023-04-08T02:06:12;101405.16;;;7.53;64.91
43621;BME280;29213;50.770;7.298;2023-04-08T02:08:37;101439.22;;;7.69;65.16
43621;BME280;29213;50.770;7.298;2023-04-08T02:11:03;101014.91;;;5.07;65.06
43621;BME280;29213;50.770;7.298;2023-04-08T02:13:30;101131.88;;;5.79;64.88
43621;BME280;29213;50.770;7.298;2023-04-08T02:16:02;101385.31;;;7.35;65.17
43621;BME280;29213;50.770;7.298;2023-04-08T02:18:30;101369.09;;;7.17;65.41
43621;BME280;29213;50.770;7.298;2023-04-08T02:21:07;101440.91;;;7.70;65.26
43621;BME280;29213;50.770;7.298;2023-04-08T02:23:37;101455.84;;;7.82;65.30
43621;BME280;29213;50.770;7.298;2023-04-08T02:26:07;101466.31;;;7.84;65.35
43621;BME280;29213;50.770;7.298;2023-04-08T02:28:38;101215.91;;;6.33;64.99
43621;BME280;29213;50.770;7.298;2023-04-08T02:31:04;101433.06;;;7.80;65.10
43621;BME280;29213;50.770;7.298;2023-04-08T02:33:33;101435.28;;;7.63;65.28
43621;BME280;29213;50.770;7.298;2023-04-08T02:36:00;101392.28;;;7.36;65.29
43621;BME280;29213;50.770;7.298;2023-04-08T02:38:27;101455.25;;;7.79;65.49
43621;BME280;29213;50.770;7.298;2023-04-08T02:40:55;101444.81;;;7.66;65.77
43621;BME280;29213;50.770;7.298;2023-04-08T02:43:20;101276.31;;;6.50;65.40
43621;BME280;29213;50.770;7.298;2023-04-08T02:45:46;101344.91;;;7.11;65.25
43621;BME280;29213;50.770;7.298;2023-04-08T02:48:12;101417.06;;;7.58;65.52
43621;BME280;29213;50.770;7.298;2023-04-08T02:50:37;101424.09;;;7.59;65.43
43621;BME280;29213;50.770;7.298;2023-04-08T02:53:04;101440.09;;;7.58;65.45
43621;BME280;29213;50.770;7.298;2023-04-08T02:55:29;101448.38;;;7.65;65.51
43621;BME280;29213;50.770;7.298;2023-04-08T02:57:55;101468.88;;;7.74;65.62
43621;BME280;29213;50.770;7.298;2023-04-08T03:00:20;101448.78;;;7.60;65.78
43621;BME280;29213;50.770;7.298;2023-04-08T03:02:46;101371.13;;;7.14;65.84
43621;BME280;29213;50.770;7.298;2023-04-08T03:05:11;101447.22;;;7.57;65.95
43621;BME280;29213;50.770;7.298;2023-04-08T03:07:37;101239.72;;;6.33;65.73
43621;BME280;29213;50.770;7.298;2023-04-08T03:10:02;101226.72;;;6.18;66.00
43621;BME280;29213;50.770;7.298;2023-04-08T03:12:28;101221.31;;;6.08;66.00
43621;BME280;29213;50.770;7.298;2023-04-08T03:14:54;101407.38;;;7.13;66.20
43621;BME280;29213;50.770;7.298;2023-04-08T03:17:20;101381.38;;;7.07;65.83
43621;BME280;29213;50.770;7.298;2023-04-08T03:19:46;101423.25;;;7.36;66.23
43621;BME280;29213;50.770;7.298;2023-04-08T03:22:12;101472.13;;;7.66;66.25
43621;BME280;29213;50.770;7.298;2023-04-08T03:24:37;101445.75;;;7.53;66.10
43621;BME280;29213;50.770;7.298;2023-04-08T03:27:03;101439.03;;;7.49;65.61
43621;BME280;29213;50.770;7.298;2023-04-08T03:29:28;101459.16;;;7.63;65.72
43621;BME280;29213;50.770;7.298;2023-04-08T03:31:54;101473.09;;;7.65;65.53
43621;BME280;29213;50.770;7.298;2023-04-08T03:34:19;101473.09;;;7.76;65.45
43621;BME280;29213;50.770;7.298;2023-04-08T03:36:45;101363.56;;;7.09;65.15
43621;BME280;29213;50.770;7.298;2023-04-08T03:39:10;101242.84;;;6.26;65.17
43621;BME280;29213;50.770;7.298;2023-04-08T03:41:36;101442.16;;;7.54;65.12
43621;BME280;29213;50.770;7.298;2023-04-08T03:44:01;101463.22;;;7.67;64.88
43621;BME280;29213;50.770;7.298;2023-04-08T03:46:27;101441.81;;;7.47;64.67
43621;BME280;29213;50.770;7.298;2023-04-08T03:48:52;101200.50;;;5.92;64.57
43621;BME280;29213;50.770;7.298;2023-04-08T03:51:18;101451.06;;;7.53;64.13
43621;BME280;29213;50.770;7.298;2023-04-08T03:53:43;101305.91;;;6.67;64.51
43621;BME280;29213;50.770;7.298;2023-04-08T03:56:08;101447.69;;;7.51;64.36
43621;BME280;29213;50.770;7.298;2023-04-08T03:58:34;101464.56;;;7.61;63.89
43621;BME280;29213;50.770;7.298;2023-04-08T04:00:59;101467.31;;;7.60;64.30
43621;BME280;29213;50.770;7.298;2023-04-08T04:03:24;101293.53;;;6.45;64.29
43621;BME280;29213;50.770;7.298;2023-04-08T04:05:50;101400.03;;;7.28;63.96
43621;BME280;29213;50.770;7.298;2023-04-08T04:08:16;101216.25;;;6.05;64.14
43621;BME280;29213;50.770;7.298;2023-04-08T04:10:41;101430.63;;;7.44;64.51
43621;BME280;29213;50.770;7.298;2023-04-08T04:13:06;101464.19;;;7.55;64.10
43621;BME280;29213;50.770;7.298;2023-04-08T04:15:32;101225.50;;;6.11;63.91
43621;BME280;29213;50.770;7.298;2023-04-08T04:17:57;101109.09;;;5.31;63.90
43621;BME280;29213;50.770;7.298;2023-04-08T04:20:23;101458.78;;;7.45;64.11
43621;BME280;29213;50.770;7.298;2023-04-08T04:22:50;101482.41;;;7.59;63.83
43621;BME280;29213;50.770;7.298;2023-04-08T04:25:16;101200.13;;;5.85;64.12
43621;BME280;29213;50.770;7.298;2023-04-08T04:27:41;101480.22;;;7.53;64.08
43621;BME280;29213;50.770;7.298;2023-04-08T04:30:07;101427.97;;;7.21;64.09
43621;BME280;29213;50.770;7.298;2023-04-08T04:32:33;101489.13;;;7.52;64.15
43621;BME280;29213;50.770;7.298;2023-04-08T04:34:59;101429.66;;;7.11;63.97
43621;BME280;29213;50.770;7.298;2023-04-08T04:37:25;101212.34;;;5.75;64.06
43621;BME280;29213;50.770;7.298;2023-04-08T04:39:50;101423.03;;;7.05;63.83
43621;BME280;29213;50.770;7.298;2023-04-08T04:42:15;101485.06;;;7.48;64.16
43621;BME280;29213;50.770;7.298;2023-04-08T04:44:41;101471.69;;;7.38;64.14
43621;BME280;29213;50.770;7.298;2023-04-08T04:47:06;101164.31;;;5.34;63.91
43621;BME280;29213;50.770;7.298;2023-04-08T04:49:32;101486.97;;;7.46;63.81
43621;BME280;29213;50.770;7.298;2023-04-08T04:51:57;101234.94;;;5.79;63.87
43621;BME280;29213;50.770;7.298;2023-04-08T04:54:22;101433.03;;;7.13;63.99
43621;BME280;29213;50.770;7.298;2023-04-08T04:56:48;101369.69;;;6.64;64.38
43621;BME280;29213;50.770;7.298;2023-04-08T04:59:13;101405.06;;;6.86;64.20
43621;BME280;29213;50.770;7.298;2023-04-08T05:01:39;101460.38;;;7.25;64.15
43621;BME280;29213;50.770;7.298;2023-04-08T05:04:06;101209.09;;;5.71;64.18
43621;BME280;29213;50.770;7.298;2023-04-08T05:06:31;101441.56;;;7.16;66.08
43621;BME280;29213;50.770;7.298;2023-04-08T05:08:57;101160.69;;;5.94;66.43
43621;BME280;29213;50.770;7.298;2023-04-08T05:11:22;101421.38;;;7.82;63.81
43621;BME280;29213;50.770;7.298;2023-04-08T05:13:48;101468.59;;;8.00;63.21
43621;BME280;29213;50.770;7.298;2023-04-08T05:16:14;101209.28;;;6.27;63.14
43621;BME280;29213;50.770;7.298;2023-04-08T05:18:39;101347.16;;;7.15;62.86
43621;BME280;29213;50.770;7.298;2023-04-08T05:21:05;101371.38;;;7.22;62.95
43621;BME280;29213;50.770;7.298;2023-04-08T05:23:30;101401.09;;;7.37;62.72
43621;BME280;29213;50.770;7.298;2023-04-08T05:25:55;101348.63;;;6.85;62.60
43621;BME280;29213;50.770;7.298;2023-04-08T05:28:21;101270.53;;;6.45;62.53
43621;BME280;29213;50.770;7.298;2023-04-08T05:30:50;101433.00;;;7.35;62.61
43621;BME280;29213;50.770;7.298;2023-04-08T05:33:16;101507.94;;;7.83;62.58
43621;BME280;29213;50.770;7.298;2023-04-08T05:35:42;101501.06;;;7.69;62.67
43621;BME280;29213;50.770;7.298;2023-04-08T05:38:07;101219.72;;;5.94;63.06
43621;BME280;29213;50.770;7.298;2023-04-08T05:40:32;101499.50;;;7.67;62.90
43621;BME280;29213;50.770;7.298;2023-04-08T05:42:58;101503.63;;;7.59;62.85
43621;BME280;29213;50.770;7.298;2023-04-08T05:45:23;101242.94;;;6.02;62.89
43621;BME280;29213;50.770;7.298;2023-04-08T05:47:49;101441.44;;;7.18;62.84
43621;BME280;29213;50.770;7.298;2023-04-08T05:50:14;101513.13;;;7.62;62.79
43621;BME280;29213;50.770;7.298;2023-04-08T05:52:43;101540.00;;;7.69;63.23
43621;BME280;29213;50.770;7.298;2023-04-08T05:55:10;101540.00;;;7.69;63.23
43621;BME280;29213;50.770;7.298;2023-04-08T05:57:36;101533.72;;;7.58;62.97
43621;BME280;29213;50.770;7.298;2023-04-08T06:00:06;100993.94;;;4.21;62.63
43621;BME280;29213;50.770;7.298;2023-04-08T06:02:32;101448.09;;;7.01;62.70
43621;BME280;29213;50.770;7.298;2023-04-08T06:04:58;101519.88;;;7.43;62.62
43621;BME280;29213;50.770;7.298;2023-04-08T06:07:23;101280.41;;;5.96;62.58
43621;BME280;29213;50.770;7.298;2023-04-08T06:09:48;101318.78;;;6.13;62.63
43621;BME280;29213;50.770;7.298;2023-04-08T06:12:14;101365.09;;;6.43;62.71
43621;BME280;29213;50.770;7.298;2023-04-08T06:14:40;101556.50;;;7.61;62.72
43621;BME280;29213;50.770;7.298;2023-04-08T06:17:05;101542.75;;;7.56;62.65
43621;BME280;29213;50.770;7.298;2023-04-08T06:19:30;101530.34;;;7.45;62.90
43621;BME280;29213;50.770;7.298;2023-04-08T06:21:56;101316.63;;;6.07;62.85
43621;BME280;29213;50.770;7.298;2023-04-08T06:24:26;101576.03;;;7.60;62.77
43621;BME280;29213;50.770;7.298;2023-04-08T06:26:54;101420.00;;;6.64;62.78
43621;BME280;29213;50.770;7.298;2023-04-08T06:29:20;101546.00;;;7.36;62.89
43621;BME280;29213;50.770;7.298;2023-04-08T06:31:46;101208.00;;;5.27;62.46
43621;BME280;29213;50.770;7.298;2023-04-08T06:34:11;101464.06;;;6.88;62.59
43621;BME280;29213;50.770;7.298;2023-04-08T06:36:37;101469.47;;;6.86;62.70
43621;BME280;29213;50.770;7.298;2023-04-08T06:39:03;101526.34;;;7.28;62.45
43621;BME280;29213;50.770;7.298;2023-04-08T06:41:29;101494.22;;;7.09;63.70
43621;BME280;29213;50.770;7.298;2023-04-08T06:43:54;101527.72;;;7.45;62.93
43621;BME280;29213;50.770;7.298;2023-04-08T06:46:20;101559.63;;;7.55;62.71
43621;BME280;29213;50.770;7.298;2023-04-08T06:48:45;101564.22;;;7.64;62.72
43621;BME280;29213;50.770;7.298;2023-04-08T06:51:11;101351.06;;;6.41;62.10
43621;BME280;29213;50.770;7.298;2023-04-08T06:53:37;101379.41;;;6.52;62.15
43621;BME280;29213;50.770;7.298;2023-04-08T06:56:05;101480.09;;;7.20;62.00
43621;BME280;29213;50.770;7.298;2023-04-08T06:58:31;101061.53;;;4.59;61.93
43621;BME280;29213;50.770;7.298;2023-04-08T07:00:58;101303.63;;;5.92;62.46
43621;BME280;29213;50.770;7.298;2023-04-08T07:03:24;101557.09;;;7.65;62.73
43621;BME280;29213;50.770;7.298;2023-04-08T07:05:49;101558.44;;;7.70;62.66
43621;BME280;29213;50.770;7.298;2023-04-08T07:08:15;101581.22;;;7.84;62.18
43621;BME280;29213;50.770;7.298;2023-04-08T07:10:40;101318.22;;;6.21;62.05
43621;BME280;29213;50.770;7.298;2023-04-08T07:13:06;101505.91;;;7.41;62.47
43621;BME280;29213;50.770;7.298;2023-04-08T07:15:31;101463.38;;;7.20;62.44
43621;BME280;29213;50.770;7.298;2023-04-08T07:17:57;101574.22;;;7.83;62.42
43621;BME280;29213;50.770;7.298;2023-04-08T07:20:31;101580.00;;;7.88;62.28
43621;BME280;29213;50.770;7.298;2023-04-08T07:23:02;101597.41;;;8.04;62.06
43621;BME280;29213;50.770;7.298;2023-04-08T07:25:28;101546.97;;;7.70;61.55
43621;BME280;29213;50.770;7.298;2023-04-08T07:27:53;101610.66;;;8.04;62.15
43621;BME280;29213;50.770;7.298;2023-04-08T07:30:19;101382.00;;;6.40;61.27
43621;BME280;29213;50.770;7.298;2023-04-08T07:32:44;101586.53;;;7.73;61.61
43621;BME280;29213;50.770;7.298;2023-04-08T07:35:13;101610.63;;;7.81;61.49
43621;BME280;29213;50.770;7.298;2023-04-08T07:37:38;101087.44;;;4.41;61.72
43621;BME280;29213;50.770;7.298;2023-04-08T07:40:04;101504.31;;;7.16;61.89
43621;BME280;29213;50.770;7.298;2023-04-08T07:42:30;101612.81;;;7.76;62.14
43621;BME280;29213;50.770;7.298;2023-04-08T07:44:56;101418.66;;;6.69;62.00
43621;BME280;29213;50.770;7.298;2023-04-08T07:47:21;101522.50;;;7.32;61.53
43621;BME280;29213;50.770;7.298;2023-04-08T07:49:47;101617.75;;;7.92;61.51
43621;BME280;29213;50.770;7.298;2023-04-08T07:52:12;101608.81;;;7.70;61.12
43621;BME280;29213;50.770;7.298;2023-04-08T07:54:38;101497.41;;;6.79;61.95
43621;BME280;29213;50.770;7.298;2023-04-08T07:57:03;101594.56;;;7.37;61.99
43621;BME280;29213;50.770;7.298;2023-04-08T07:59:28;101422.34;;;6.44;61.69
43621;BME280;29213;50.770;7.298;2023-04-08T08:01:55;101604.59;;;7.56;61.55
43621;BME280;29213;50.770;7.298;2023-04-08T08:04:20;101651.97;;;7.84;61.74
43621;BME280;29213;50.770;7.298;2023-04-08T08:06:46;101662.59;;;7.95;61.48
43621;BME280;29213;50.770;7.298;2023-04-08T08:09:12;101392.91;;;6.36;61.54
43621;BME280;29213;50.770;7.298;2023-04-08T08:11:37;101556.25;;;7.30;61.23
43621;BME280;29213;50.770;7.298;2023-04-08T08:14:03;101409.59;;;6.49;61.38
43621;BME280;29213;50.770;7.298;2023-04-08T08:16:30;101420.56;;;6.56;60.94
43621;BME280;29213;50.770;7.298;2023-04-08T08:19:01;101248.69;;;5.24;61.41
43621;BME280;29213;50.770;7.298;2023-04-08T08:21:28;101562.16;;;7.33;61.45
43621;BME280;29213;50.770;7.298;2023-04-08T08:23:54;101655.00;;;8.02;61.31
43621;BME280;29213;50.770;7.298;2023-04-08T08:26:21;101636.91;;;7.96;61.16
43621;BME280;29213;50.770;7.298;2023-04-08T08:28:46;101609.91;;;7.90;61.03
43621;BME280;29213;50.770;7.298;2023-04-08T08:31:11;101426.03;;;6.77;61.09
43621;BME280;29213;50.770;7.298;2023-04-08T08:33:37;101106.09;;;4.75;60.75
43621;BME280;29213;50.770;7.298;2023-04-08T08:36:03;101651.06;;;8.08;60.89
43621;BME280;29213;50.770;7.298;2023-04-08T08:38:29;101606.44;;;7.79;61.37
43621;BME280;29213;50.770;7.298;2023-04-08T08:40:58;101612.19;;;7.95;61.08
43621;BME280;29213;50.770;7.298;2023-04-08T08:43:29;101472.06;;;7.22;61.13
43621;BME280;29213;50.770;7.298;2023-04-08T08:45:58;101338.63;;;6.43;60.74
43621;BME280;29213;50.770;7.298;2023-04-08T08:48:24;101424.47;;;7.09;60.86
43621;BME280;29213;50.770;7.298;2023-04-08T08:50:50;101422.19;;;7.04;60.57
43621;BME280;29213;50.770;7.298;2023-04-08T08:53:21;101489.63;;;7.57;60.74
43621;BME280;29213;50.770;7.298;2023-04-08T08:56:21;101296.19;;;6.56;60.02
43621;BME280;29213;50.770;7.298;2023-04-08T08:58:47;101689.66;;;8.90;59.85
43621;BME280;29213;50.770;7.298;2023-04-08T09:01:32;101625.03;;;8.57;59.60
43621;BME280;29213;50.770;7.298;2023-04-08T09:04:06;101649.50;;;8.72;60.10
43621;BME280;29213;50.770;7.298;2023-04-08T09:06:32;101667.00;;;8.75;59.73
43621;BME280;29213;50.770;7.298;2023-04-08T09:08:58;101188.97;;;5.93;59.33
43621;BME280;29213;50.770;7.298;2023-04-08T09:11:23;101560.00;;;8.07;59.48
43621;BME280;29213;50.770;7.298;2023-04-08T09:13:49;101364.75;;;7.05;59.66
43621;BME280;29213;50.770;7.298;2023-04-08T09:16:16;101686.22;;;9.11;59.68
43621;BME280;29213;50.770;7.298;2023-04-08T09:18:43;101431.56;;;7.54;59.34
43621;BME280;29213;50.770;7.298;2023-04-08T09:21:11;101586.41;;;8.53;59.33
43621;BME280;29213;50.770;7.298;2023-04-08T09:23:38;101569.34;;;8.34;59.37
43621;BME280;29213;50.770;7.298;2023-04-08T09:26:15;101674.31;;;9.15;59.28
43621;BME280;29213;50.770;7.298;2023-04-08T09:28:42;101704.50;;;9.26;58.88
43621;BME280;29213;50.770;7.298;2023-04-08T09:31:24;101492.09;;;7.93;59.04
43621;BME280;29213;50.770;7.298;2023-04-08T09:33:59;101680.03;;;9.10;58.62
43621;BME280;29213;50.770;7.298;2023-04-08T09:36:25;101637.78;;;8.75;58.80
43621;BME280;29213;50.770;7.298;2023-04-08T09:38:52;101494.16;;;7.89;59.09
43621;BME280;29213;50.770;7.298;2023-04-08T09:41:19;101703.22;;;9.20;58.93
43621;BME280;29213;50.770;7.298;2023-04-08T09:43:55;101456.69;;;7.71;58.88
43621;BME280;29213;50.770;7.298;2023-04-08T09:46:50;101648.94;;;8.90;58.95
43621;BME280;29213;50.770;7.298;2023-04-08T09:52:10;101700.22;;;9.34;58.85
43621;BME280;29213;50.770;7.298;2023-04-08T09:55:00;101710.63;;;9.38;58.57
43621;BME280;29213;50.770;7.298;2023-04-08T10:00:02;101646.63;;;8.96;58.57
43621;BME280;29213;50.770;7.298;2023-04-08T10:02:35;101656.06;;;9.22;58.34
43621;BME280;29213;50.770;7.298;2023-04-08T10:05:04;101469.69;;;7.97;58.17
43621;BME280;29213;50.770;7.298;2023-04-08T10:07:30;101600.38;;;8.99;57.75
43621;BME280;29213;50.770;7.298;2023-04-08T10:09:56;101659.50;;;9.34;57.62
43621;BME280;29213;50.770;7.298;2023-04-08T10:12:22;101672.75;;;9.45;57.55
43621;BME280;29213;50.770;7.298;2023-04-08T10:15:20;101695.66;;;9.58;57.33
43621;BME280;29213;50.770;7.298;2023-04-08T10:17:46;101629.81;;;9.29;58.59
43621;BME280;29213;50.770;7.298;2023-04-08T10:23:03;101699.41;;;9.76;57.63
43621;BME280;29213;50.770;7.298;2023-04-08T10:25:36;101701.94;;;9.78;57.48
43621;BME280;29213;50.770;7.298;2023-04-08T10:30:48;101616.41;;;9.30;57.33
43621;BME280;29213;50.770;7.298;2023-04-08T10:33:20;101683.72;;;9.73;56.94
43621;BME280;29213;50.770;7.298;2023-04-08T10:35:48;101706.09;;;9.92;56.25
43621;BME280;29213;50.770;7.298;2023-04-08T10:38:14;101604.50;;;9.34;56.49
43621;BME280;29213;50.770;7.298;2023-04-08T10:40:41;101703.88;;;9.97;55.89
43621;BME280;29213;50.770;7.298;2023-04-08T10:43:11;101478.81;;;8.49;55.71
43621;BME280;29213;50.770;7.298;2023-04-08T10:45:38;101696.47;;;10.01;55.99
43621;BME280;29213;50.770;7.298;2023-04-08T10:50:43;101699.44;;;10.08;55.86
43621;BME280;29213;50.770;7.298;2023-04-08T10:53:10;101639.66;;;9.81;55.33
43621;BME280;29213;50.770;7.298;2023-04-08T10:55:36;101388.53;;;8.27;55.54
43621;BME280;29213;50.770;7.298;2023-04-08T10:58:14;101420.25;;;8.50;55.27
43621;BME280;29213;50.770;7.298;2023-04-08T11:00:43;101510.41;;;9.16;55.17
43621;BME280;29213;50.770;7.298;2023-04-08T11:03:09;101645.41;;;10.17;54.18
43621;BME280;29213;50.770;7.298;2023-04-08T11:05:36;101612.59;;;10.07;54.34
43621;BME280;29213;50.770;7.298;2023-04-08T11:08:06;101692.59;;;10.56;54.00
43621;BME280;29213;50.770;7.298;2023-04-08T11:10:36;101652.88;;;10.33;53.66
43621;BME280;29213;50.770;7.298;2023-04-08T11:13:05;101687.53;;;10.53;53.71
43621;BME280;29213;50.770;7.298;2023-04-08T11:15:32;101596.44;;;9.98;54.08
43621;BME280;29213;50.770;7.298;2023-04-08T11:17:57;101574.16;;;9.89;53.40
43621;BME280;29213;50.770;7.298;2023-04-08T11:20:23;101682.06;;;10.45;53.02
43621;BME280;29213;50.770;7.298;2023-04-08T11:22:49;101632.22;;;10.06;52.80
43621;BME280;29213;50.770;7.298;2023-04-08T11:25:14;101483.25;;;9.12;52.93
43621;BME280;29213;50.770;7.298;2023-04-08T11:27:40;101326.34;;;8.20;52.95
43621;BME280;29213;50.770;7.298;2023-04-08T11:30:06;101669.72;;;10.34;52.55
43621;BME280;29213;50.770;7.298;2023-04-08T11:32:34;101465.06;;;8.86;52.42
43621;BME280;29213;50.770;7.298;2023-04-08T11:35:01;101462.09;;;9.01;52.84
43621;BME280;29213;50.770;7.298;2023-04-08T11:37:36;101663.94;;;10.28;52.76
43621;BME280;29213;50.770;7.298;2023-04-08T11:40:08;101571.16;;;9.73;52.76
43621;BME280;29213;50.770;7.298;2023-04-08T11:43:11;101139.63;;;7.05;56.75
43621;BME280;29213;50.770;7.298;2023-04-08T11:45:38;101670.31;;;10.67;56.07
43621;BME280;29213;50.770;7.298;2023-04-08T11:48:11;101525.25;;;9.81;55.75
43621;BME280;29213;50.770;7.298;2023-04-08T11:50:38;101293.75;;;8.39;53.51
43621;BME280;29213;50.770;7.298;2023-04-08T11:53:16;101606.38;;;10.37;52.96
43621;BME280;29213;50.770;7.298;2023-04-08T11:55:44;101580.69;;;10.26;53.02
43621;BME280;29213;50.770;7.298;2023-04-08T11:58:09;101625.44;;;10.42;52.02
43621;BME280;29213;50.770;7.298;2023-04-08T12:00:35;101667.72;;;10.77;52.06
43621;BME280;29213;50.770;7.298;2023-04-08T12:03:01;101579.25;;;10.12;52.37
43621;BME280;29213;50.770;7.298;2023-04-08T12:05:27;101652.09;;;10.62;51.58
43621;BME280;29213;50.770;7.298;2023-04-08T12:07:52;101659.22;;;10.52;51.41
43621;BME280;29213;50.770;7.298;2023-04-08T12:10:18;101441.97;;;9.08;51.10
43621;BME280;29213;50.770;7.298;2023-04-08T12:12:43;101483.75;;;9.27;51.63
43621;BME280;29213;50.770;7.298;2023-04-08T12:15:09;101588.59;;;9.97;51.91
43621;BME280;29213;50.770;7.298;2023-04-08T12:17:35;101308.66;;;8.09;51.35
43621;BME280;29213;50.770;7.298;2023-04-08T12:20:00;101436.53;;;9.09;51.51
43621;BME280;29213;50.770;7.298;2023-04-08T12:22:26;101676.06;;;10.72;51.34
43621;BME280;29213;50.770;7.298;2023-04-08T12:24:52;101424.94;;;9.20;51.27
43621;BME280;29213;50.770;7.298;2023-04-08T12:27:17;101402.38;;;9.05;52.77
43621;BME280;29213;50.770;7.298;2023-04-08T12:29:43;101659.03;;;10.85;51.46
43621;BME280;29213;50.770;7.298;2023-04-08T12:32:08;101665.22;;;10.95;50.49
43621;BME280;29213;50.770;7.298;2023-04-08T12:34:34;101414.09;;;9.33;49.71
43621;BME280;29213;50.770;7.298;2023-04-08T12:36:59;101662.25;;;10.78;50.18
43621;BME280;29213;50.770;7.298;2023-04-08T12:39:25;101637.94;;;10.72;50.39
43621;BME280;29213;50.770;7.298;2023-04-08T12:41:51;101626.16;;;10.64;49.67
43621;BME280;29213;50.770;7.298;2023-04-08T12:44:16;101659.00;;;11.04;50.18
43621;BME280;29213;50.770;7.298;2023-04-08T12:46:42;101520.00;;;10.30;50.03
43621;BME280;29213;50.770;7.298;2023-04-08T12:49:07;101647.94;;;11.09;50.28
43621;BME280;29213;50.770;7.298;2023-04-08T12:51:34;101663.06;;;11.28;49.86
43621;BME280;29213;50.770;7.298;2023-04-08T12:54:00;101584.41;;;10.85;49.71
43621;BME280;29213;50.770;7.298;2023-04-08T12:56:27;101671.91;;;11.48;49.53
43621;BME280;29213;50.770;7.298;2023-04-08T12:58:53;101378.25;;;9.79;46.98
43621;BME280;29213;50.770;7.298;2023-04-08T13:01:20;101390.41;;;9.91;45.36
43621;BME280;29213;50.770;7.298;2023-04-08T13:03:45;101529.66;;;11.00;44.71
43621;BME280;29213;50.770;7.298;2023-04-08T13:06:12;101639.09;;;11.76;44.18
43621;BME280;29213;50.770;7.298;2023-04-08T13:08:37;101419.38;;;10.53;43.16
43621;BME280;29213;50.770;7.298;2023-04-08T13:11:03;101564.44;;;11.56;43.07
43621;BME280;29213;50.770;7.298;2023-04-08T13:13:28;101587.03;;;12.00;44.31
43621;BME280;29213;50.770;7.298;2023-04-08T13:15:54;101659.81;;;12.58;42.38